sensor_id;sensor_type;location;lat;lon;timestamp;temperature;humidity
61912;DHT22;49973;52.084;5.412;2022-12-10T00:01:48;-0.20;99.90
61912;DHT22;49973;52.084;5.412;2022-12-10T00:04:19;-0.20;99.90
61912;DHT22;49973;52.084;5.412;2022-12-10T00:06:48;-0.20;99.90
61912;DHT22;49973;52.084;5.412;2022-12-10T00:09:18;-0.20;99.90
61912;DHT22;49973;52.084;5.412;2022-12-10T00:11:47;-0.20;99.90
61912;DHT22;49973;52.084;5.412;2022-12-10T00:14:17;-0.20;99.90
61912;DHT22;49973;52.084;5.412;2022-12-10T00:16:45;-0.20;99.90
61912;DHT22;49973;52.084;5.412;2022-12-10T00:19:14;-0.20;99.90
61912;DHT22;49973;52.084;5.412;2022-12-10T00:21:44;-0.30;99.90
61912;DHT22;49973;52.084;5.412;2022-12-10T00:24:13;-0.30;99.90
61912;DHT22;49973;52.084;5.412;2022-12-10T00:26:42;-0.30;99.90
61912;DHT22;49973;52.084;5.412;2022-12-10T00:29:13;-0.30;99.90
61912;DHT22;49973;52.084;5.412;2022-12-10T00:31:41;-0.30;99.90
61912;DHT22;49973;52.084;5.412;2022-12-10T00:34:11;-0.30;99.90
61912;DHT22;49973;52.084;5.412;2022-12-10T00:36:41;-0.30;99.90
61912;DHT22;49973;52.084;5.412;2022-12-10T00:39:14;-0.30;99.90
61912;DHT22;49973;52.084;5.412;2022-12-10T00:41:44;-0.30;99.90
61912;DHT22;49973;52.084;5.412;2022-12-10T00:44:13;-0.30;99.90
61912;DHT22;49973;52.084;5.412;2022-12-10T00:46:42;-0.30;99.90
61912;DHT22;49973;52.084;5.412;2022-12-10T00:49:11;-0.30;99.90
61912;DHT22;49973;52.084;5.412;2022-12-10T00:51:40;-0.30;99.90
61912;DHT22;49973;52.084;5.412;2022-12-10T00:54:12;-0.30;99.90
61912;DHT22;49973;52.084;5.412;2022-12-10T00:56:41;-0.30;99.90
61912;DHT22;49973;52.084;5.412;2022-12-10T00:59:09;-0.20;99.90
61912;DHT22;49973;52.084;5.412;2022-12-10T01:01:40;-0.20;99.90
61912;DHT22;49973;52.084;5.412;2022-12-10T01:04:11;-0.20;99.90
61912;DHT22;49973;52.084;5.412;2022-12-10T01:06:42;-0.20;99.90
61912;DHT22;49973;52.084;5.412;2022-12-10T01:09:15;-0.10;99.90
61912;DHT22;49973;52.084;5.412;2022-12-10T01:11:45;-0.10;99.90
61912;DHT22;49973;52.084;5.412;2022-12-10T01:14:16;-0.10;99.90
61912;DHT22;49973;52.084;5.412;2022-12-10T01:16:48;0.00;99.90
61912;DHT22;49973;52.084;5.412;2022-12-10T01:19:16;0.00;99.90
61912;DHT22;49973;52.084;5.412;2022-12-10T01:21:45;0.10;99.90
61912;DHT22;49973;52.084;5.412;2022-12-10T01:24:15;0.10;99.90
61912;DHT22;49973;52.084;5.412;2022-12-10T01:26:44;0.10;99.90
61912;DHT22;49973;52.084;5.412;2022-12-10T01:29:13;0.10;99.90
61912;DHT22;49973;52.084;5.412;2022-12-10T01:31:41;0.10;99.90
61912;DHT22;49973;52.084;5.412;2022-12-10T01:34:13;0.10;99.90
61912;DHT22;49973;52.084;5.412;2022-12-10T01:36:43;0.20;99.90
61912;DHT22;49973;52.084;5.412;2022-12-10T01:39:15;0.20;99.90
61912;DHT22;49973;52.084;5.412;2022-12-10T01:41:46;0.20;99.90
61912;DHT22;49973;52.084;5.412;2022-12-10T01:47:23;0.30;99.90
61912;DHT22;49973;52.084;5.412;2022-12-10T01:49:51;0.30;99.90
61912;DHT22;49973;52.084;5.412;2022-12-10T01:52:20;0.30;99.90
61912;DHT22;49973;52.084;5.412;2022-12-10T01:54:50;0.30;99.90
61912;DHT22;49973;52.084;5.412;2022-12-10T01:57:21;0.30;99.90
61912;DHT22;49973;52.084;5.412;2022-12-10T01:59:52;0.30;99.90
61912;DHT22;49973;52.084;5.412;2022-12-10T02:02:29;0.30;99.90
61912;DHT22;49973;52.084;5.412;2022-12-10T02:05:07;0.30;99.90
61912;DHT22;49973;52.084;5.412;2022-12-10T02:07:50;0.40;99.90
61912;DHT22;49973;52.084;5.412;2022-12-10T02:10:30;0.30;99.90
61912;DHT22;49973;52.084;5.412;2022-12-10T02:13:06;0.30;99.90
61912;DHT22;49973;52.084;5.412;2022-12-10T02:15:41;0.30;99.90
61912;DHT22;49973;52.084;5.412;2022-12-10T02:18:14;0.30;99.90
61912;DHT22;49973;52.084;5.412;2022-12-10T02:20:47;0.40;99.90
61912;DHT22;49973;52.084;5.412;2022-12-10T02:23:21;0.30;99.90
61912;DHT22;49973;52.084;5.412;2022-12-10T02:25:57;0.30;99.90
61912;DHT22;49973;52.084;5.412;2022-12-10T02:28:36;0.30;99.90
61912;DHT22;49973;52.084;5.412;2022-12-10T02:31:10;0.30;99.90
61912;DHT22;49973;52.084;5.412;2022-12-10T02:33:43;0.30;99.90
61912;DHT22;49973;52.084;5.412;2022-12-10T02:36:14;0.30;99.90
61912;DHT22;49973;52.084;5.412;2022-12-10T02:38:43;0.30;99.90
61912;DHT22;49973;52.084;5.412;2022-12-10T02:41:16;0.30;99.90
61912;DHT22;49973;52.084;5.412;2022-12-10T02:43:49;0.30;99.90
61912;DHT22;49973;52.084;5.412;2022-12-10T02:46:21;0.30;99.90
61912;DHT22;49973;52.084;5.412;2022-12-10T02:48:52;0.30;99.90
61912;DHT22;49973;52.084;5.412;2022-12-10T02:51:21;0.30;99.90
61912;DHT22;49973;52.084;5.412;2022-12-10T02:53:58;0.30;99.90
61912;DHT22;49973;52.084;5.412;2022-12-10T02:56:33;0.30;99.90
61912;DHT22;49973;52.084;5.412;2022-12-10T02:59:10;0.20;99.90
61912;DHT22;49973;52.084;5.412;2022-12-10T03:01:57;0.20;99.90
61912;DHT22;49973;52.084;5.412;2022-12-10T03:04:33;0.20;99.90
61912;DHT22;49973;52.084;5.412;2022-12-10T03:07:08;0.20;99.90
61912;DHT22;49973;52.084;5.412;2022-12-10T03:09:43;0.20;99.90
61912;DHT22;49973;52.084;5.412;2022-12-10T03:12:17;0.20;99.90
61912;DHT22;49973;52.084;5.412;2022-12-10T03:14:47;0.20;99.90
61912;DHT22;49973;52.084;5.412;2022-12-10T03:17:17;0.20;99.90
61912;DHT22;49973;52.084;5.412;2022-12-10T03:19:48;0.20;99.90
61912;DHT22;49973;52.084;5.412;2022-12-10T03:22:19;0.20;99.90
61912;DHT22;49973;52.084;5.412;2022-12-10T03:24:48;0.20;99.90
61912;DHT22;49973;52.084;5.412;2022-12-10T03:27:19;0.20;99.90
61912;DHT22;49973;52.084;5.412;2022-12-10T03:29:50;0.20;99.90
61912;DHT22;49973;52.084;5.412;2022-12-10T03:32:22;0.20;99.90
61912;DHT22;49973;52.084;5.412;2022-12-10T03:34:54;0.20;99.90
61912;DHT22;49973;52.084;5.412;2022-12-10T03:37:25;0.20;99.90
61912;DHT22;49973;52.084;5.412;2022-12-10T03:39:55;0.20;99.90
61912;DHT22;49973;52.084;5.412;2022-12-10T03:42:24;0.20;99.90
61912;DHT22;49973;52.084;5.412;2022-12-10T03:44:53;0.20;99.90
61912;DHT22;49973;52.084;5.412;2022-12-10T03:47:23;0.20;99.90
61912;DHT22;49973;52.084;5.412;2022-12-10T03:49:52;0.20;99.90
61912;DHT22;49973;52.084;5.412;2022-12-10T03:52:20;0.20;99.90
61912;DHT22;49973;52.084;5.412;2022-12-10T03:54:48;0.20;99.90
61912;DHT22;49973;52.084;5.412;2022-12-10T03:57:17;0.20;99.90
61912;DHT22;49973;52.084;5.412;2022-12-10T03:59:45;0.20;99.90
61912;DHT22;49973;52.084;5.412;2022-12-10T04:02:14;0.20;99.90
61912;DHT22;49973;52.084;5.412;2022-12-10T04:04:44;0.20;99.90
61912;DHT22;49973;52.084;5.412;2022-12-10T04:07:12;0.20;99.90
61912;DHT22;49973;52.084;5.412;2022-12-10T04:09:41;0.20;99.90
61912;DHT22;49973;52.084;5.412;2022-12-10T04:12:10;0.20;99.90
61912;DHT22;49973;52.084;5.412;2022-12-10T04:14:39;0.20;99.90
61912;DHT22;49973;52.084;5.412;2022-12-10T04:17:25;0.20;99.90
61912;DHT22;49973;52.084;5.412;2022-12-10T04:19:55;0.10;99.90
61912;DHT22;49973;52.084;5.412;2022-12-10T04:22:23;0.10;99.90
61912;DHT22;49973;52.084;5.412;2022-12-10T04:25:11;0.10;99.90
61912;DHT22;49973;52.084;5.412;2022-12-10T04:27:57;0.10;99.90
61912;DHT22;49973;52.084;5.412;2022-12-10T04:30:26;0.10;99.90
61912;DHT22;49973;52.084;5.412;2022-12-10T04:32:54;0.10;99.90
61912;DHT22;49973;52.084;5.412;2022-12-10T04:35:24;0.10;99.90
61912;DHT22;49973;52.084;5.412;2022-12-10T04:37:52;0.10;99.90
61912;DHT22;49973;52.084;5.412;2022-12-10T04:40:21;0.10;99.90
61912;DHT22;49973;52.084;5.412;2022-12-10T04:42:51;0.10;99.90
61912;DHT22;49973;52.084;5.412;2022-12-10T04:45:20;0.10;99.90
61912;DHT22;49973;52.084;5.412;2022-12-10T04:47:48;0.10;99.90
61912;DHT22;49973;52.084;5.412;2022-12-10T04:50:17;0.10;99.90
61912;DHT22;49973;52.084;5.412;2022-12-10T04:52:47;0.10;99.90
61912;DHT22;49973;52.084;5.412;2022-12-10T04:55:15;0.10;99.90
61912;DHT22;49973;52.084;5.412;2022-12-10T04:57:44;0.10;99.90
61912;DHT22;49973;52.084;5.412;2022-12-10T05:00:13;0.10;99.90
61912;DHT22;49973;52.084;5.412;2022-12-10T05:02:41;0.10;99.90
61912;DHT22;49973;52.084;5.412;2022-12-10T05:05:10;0.10;99.90
61912;DHT22;49973;52.084;5.412;2022-12-10T05:07:39;0.10;99.90
61912;DHT22;49973;52.084;5.412;2022-12-10T05:10:09;0.10;99.90
61912;DHT22;49973;52.084;5.412;2022-12-10T05:12:38;0.10;99.90
61912;DHT22;49973;52.084;5.412;2022-12-10T05:15:07;0.10;99.90
61912;DHT22;49973;52.084;5.412;2022-12-10T05:17:36;0.10;99.90
61912;DHT22;49973;52.084;5.412;2022-12-10T05:20:06;0.00;99.90
61912;DHT22;49973;52.084;5.412;2022-12-10T05:22:34;0.00;99.90
61912;DHT22;49973;52.084;5.412;2022-12-10T05:25:22;0.00;99.90
61912;DHT22;49973;52.084;5.412;2022-12-10T05:27:50;0.00;99.90
61912;DHT22;49973;52.084;5.412;2022-12-10T05:30:19;0.00;99.90
61912;DHT22;49973;52.084;5.412;2022-12-10T05:32:47;0.00;99.90
61912;DHT22;49973;52.084;5.412;2022-12-10T05:35:16;0.00;99.90
61912;DHT22;49973;52.084;5.412;2022-12-10T05:37:44;0.00;99.90
61912;DHT22;49973;52.084;5.412;2022-12-10T05:40:13;0.00;99.90
61912;DHT22;49973;52.084;5.412;2022-12-10T05:42:43;0.00;99.90
61912;DHT22;49973;52.084;5.412;2022-12-10T05:45:11;0.00;99.90
61912;DHT22;49973;52.084;5.412;2022-12-10T05:47:40;0.00;99.90
61912;DHT22;49973;52.084;5.412;2022-12-10T05:50:08;0.00;99.90
61912;DHT22;49973;52.084;5.412;2022-12-10T05:52:37;0.00;99.90
61912;DHT22;49973;52.084;5.412;2022-12-10T05:55:06;0.00;99.90
61912;DHT22;49973;52.084;5.412;2022-12-10T05:57:35;0.00;99.90
61912;DHT22;49973;52.084;5.412;2022-12-10T06:00:06;0.00;99.90
61912;DHT22;49973;52.084;5.412;2022-12-10T06:02:38;0.00;99.90
61912;DHT22;49973;52.084;5.412;2022-12-10T06:05:08;0.00;99.90
61912;DHT22;49973;52.084;5.412;2022-12-10T06:07:36;0.00;99.90
61912;DHT22;49973;52.084;5.412;2022-12-10T06:10:05;0.00;99.90
61912;DHT22;49973;52.084;5.412;2022-12-10T06:12:34;0.00;99.90
61912;DHT22;49973;52.084;5.412;2022-12-10T06:15:05;0.00;99.90
61912;DHT22;49973;52.084;5.412;2022-12-10T06:17:33;0.00;99.90
61912;DHT22;49973;52.084;5.412;2022-12-10T06:20:03;0.00;99.90
61912;DHT22;49973;52.084;5.412;2022-12-10T06:22:33;0.00;99.90
61912;DHT22;49973;52.084;5.412;2022-12-10T06:25:02;0.00;99.90
61912;DHT22;49973;52.084;5.412;2022-12-10T06:27:32;0.00;99.90
61912;DHT22;49973;52.084;5.412;2022-12-10T06:30:00;0.00;99.90
61912;DHT22;49973;52.084;5.412;2022-12-10T06:32:30;0.00;99.90
61912;DHT22;49973;52.084;5.412;2022-12-10T06:34:58;0.00;99.90
61912;DHT22;49973;52.084;5.412;2022-12-10T06:37:27;-0.10;99.90
61912;DHT22;49973;52.084;5.412;2022-12-10T06:39:55;0.00;99.90
61912;DHT22;49973;52.084;5.412;2022-12-10T06:42:24;0.00;99.90
61912;DHT22;49973;52.084;5.412;2022-12-10T06:44:52;0.00;99.90
61912;DHT22;49973;52.084;5.412;2022-12-10T06:47:21;0.00;99.90
61912;DHT22;49973;52.084;5.412;2022-12-10T06:49:51;0.00;99.90
61912;DHT22;49973;52.084;5.412;2022-12-10T06:52:19;0.00;99.90
61912;DHT22;49973;52.084;5.412;2022-12-10T06:54:48;0.00;99.90
61912;DHT22;49973;52.084;5.412;2022-12-10T06:57:16;0.00;99.90
61912;DHT22;49973;52.084;5.412;2022-12-10T06:59:45;0.00;99.90
61912;DHT22;49973;52.084;5.412;2022-12-10T07:02:13;0.10;99.90
61912;DHT22;49973;52.084;5.412;2022-12-10T07:04:42;0.10;99.90
61912;DHT22;49973;52.084;5.412;2022-12-10T07:07:12;0.10;99.90
61912;DHT22;49973;52.084;5.412;2022-12-10T07:09:40;0.10;99.90
61912;DHT22;49973;52.084;5.412;2022-12-10T07:12:09;0.10;99.90
61912;DHT22;49973;52.084;5.412;2022-12-10T07:14:37;0.10;99.90
61912;DHT22;49973;52.084;5.412;2022-12-10T07:17:06;0.10;99.90
61912;DHT22;49973;52.084;5.412;2022-12-10T07:19:34;0.10;99.90
61912;DHT22;49973;52.084;5.412;2022-12-10T07:22:03;0.10;99.90
61912;DHT22;49973;52.084;5.412;2022-12-10T07:24:33;0.10;99.90
61912;DHT22;49973;52.084;5.412;2022-12-10T07:27:04;0.10;99.90
61912;DHT22;49973;52.084;5.412;2022-12-10T07:29:34;0.10;99.90
61912;DHT22;49973;52.084;5.412;2022-12-10T07:32:02;0.10;99.90
61912;DHT22;49973;52.084;5.412;2022-12-10T07:34:31;0.10;99.90
61912;DHT22;49973;52.084;5.412;2022-12-10T07:36:59;0.00;99.90
61912;DHT22;49973;52.084;5.412;2022-12-10T07:39:28;0.00;99.90
61912;DHT22;49973;52.084;5.412;2022-12-10T07:41:58;0.00;99.90
61912;DHT22;49973;52.084;5.412;2022-12-10T07:44:28;-0.10;99.90
61912;DHT22;49973;52.084;5.412;2022-12-10T07:46:56;-0.10;99.90
61912;DHT22;49973;52.084;5.412;2022-12-10T07:49:25;-0.10;99.90
61912;DHT22;49973;52.084;5.412;2022-12-10T07:51:53;-0.10;99.90
61912;DHT22;49973;52.084;5.412;2022-12-10T07:54:22;-0.10;99.90
61912;DHT22;49973;52.084;5.412;2022-12-10T07:56:50;-0.10;99.90
61912;DHT22;49973;52.084;5.412;2022-12-10T07:59:20;-0.10;99.90
61912;DHT22;49973;52.084;5.412;2022-12-10T08:01:48;-0.10;99.90
61912;DHT22;49973;52.084;5.412;2022-12-10T08:04:17;-0.10;99.90
61912;DHT22;49973;52.084;5.412;2022-12-10T08:06:46;-0.10;99.90
61912;DHT22;49973;52.084;5.412;2022-12-10T08:09:14;-0.10;99.90
61912;DHT22;49973;52.084;5.412;2022-12-10T08:11:43;-0.10;99.90
61912;DHT22;49973;52.084;5.412;2022-12-10T08:14:12;-0.10;99.90
61912;DHT22;49973;52.084;5.412;2022-12-10T08:16:42;-0.10;99.90
61912;DHT22;49973;52.084;5.412;2022-12-10T08:19:10;-0.10;99.90
61912;DHT22;49973;52.084;5.412;2022-12-10T08:21:47;-0.10;99.90
61912;DHT22;49973;52.084;5.412;2022-12-10T08:24:16;-0.10;99.90
61912;DHT22;49973;52.084;5.412;2022-12-10T08:26:44;-0.10;99.90
61912;DHT22;49973;52.084;5.412;2022-12-10T08:29:12;0.00;99.90
61912;DHT22;49973;52.084;5.412;2022-12-10T08:31:42;0.00;99.90
61912;DHT22;49973;52.084;5.412;2022-12-10T08:34:13;0.00;99.90
61912;DHT22;49973;52.084;5.412;2022-12-10T08:36:42;0.00;99.90
61912;DHT22;49973;52.084;5.412;2022-12-10T08:39:11;0.00;99.90
61912;DHT22;49973;52.084;5.412;2022-12-10T08:41:43;0.10;99.90
61912;DHT22;49973;52.084;5.412;2022-12-10T08:44:12;0.10;99.90
61912;DHT22;49973;52.084;5.412;2022-12-10T08:46:42;0.10;99.90
61912;DHT22;49973;52.084;5.412;2022-12-10T08:49:10;0.20;99.90
61912;DHT22;49973;52.084;5.412;2022-12-10T08:51:39;0.20;99.90
61912;DHT22;49973;52.084;5.412;2022-12-10T08:54:07;0.20;99.90
61912;DHT22;49973;52.084;5.412;2022-12-10T08:56:36;0.20;99.90
61912;DHT22;49973;52.084;5.412;2022-12-10T08:59:06;0.20;99.90
61912;DHT22;49973;52.084;5.412;2022-12-10T09:01:35;0.20;99.90
61912;DHT22;49973;52.084;5.412;2022-12-10T09:04:05;0.20;99.90
61912;DHT22;49973;52.084;5.412;2022-12-10T09:06:33;0.20;99.90
61912;DHT22;49973;52.084;5.412;2022-12-10T09:09:02;0.20;99.90
61912;DHT22;49973;52.084;5.412;2022-12-10T09:11:33;0.20;99.90
61912;DHT22;49973;52.084;5.412;2022-12-10T09:14:02;0.30;99.90
61912;DHT22;49973;52.084;5.412;2022-12-10T09:16:32;0.30;99.90
61912;DHT22;49973;52.084;5.412;2022-12-10T09:19:02;0.30;99.90
61912;DHT22;49973;52.084;5.412;2022-12-10T09:21:32;0.30;99.90
61912;DHT22;49973;52.084;5.412;2022-12-10T09:24:01;0.40;99.90
61912;DHT22;49973;52.084;5.412;2022-12-10T09:26:29;0.40;99.90
61912;DHT22;49973;52.084;5.412;2022-12-10T09:28:58;0.40;99.90
61912;DHT22;49973;52.084;5.412;2022-12-10T09:31:27;0.30;99.90
61912;DHT22;49973;52.084;5.412;2022-12-10T09:33:57;0.40;99.90
61912;DHT22;49973;52.084;5.412;2022-12-10T09:36:25;0.40;99.90
61912;DHT22;49973;52.084;5.412;2022-12-10T09:39:02;0.40;99.90
61912;DHT22;49973;52.084;5.412;2022-12-10T09:41:48;0.40;99.90
61912;DHT22;49973;52.084;5.412;2022-12-10T09:44:29;0.50;99.90
61912;DHT22;49973;52.084;5.412;2022-12-10T09:47:02;0.50;99.90
61912;DHT22;49973;52.084;5.412;2022-12-10T09:49:39;0.50;99.90
61912;DHT22;49973;52.084;5.412;2022-12-10T09:52:12;0.50;99.90
61912;DHT22;49973;52.084;5.412;2022-12-10T09:54:45;0.50;99.90
61912;DHT22;49973;52.084;5.412;2022-12-10T09:57:20;0.50;99.90
61912;DHT22;49973;52.084;5.412;2022-12-10T09:59:51;0.40;99.90
61912;DHT22;49973;52.084;5.412;2022-12-10T10:02:22;0.40;99.90
61912;DHT22;49973;52.084;5.412;2022-12-10T10:04:54;0.40;99.90
61912;DHT22;49973;52.084;5.412;2022-12-10T10:07:25;0.40;99.90
61912;DHT22;49973;52.084;5.412;2022-12-10T10:09:58;0.50;99.90
61912;DHT22;49973;52.084;5.412;2022-12-10T10:12:28;0.50;99.90
61912;DHT22;49973;52.084;5.412;2022-12-10T10:14:56;0.50;99.90
61912;DHT22;49973;52.084;5.412;2022-12-10T10:17:31;0.50;99.90
61912;DHT22;49973;52.084;5.412;2022-12-10T10:20:01;0.60;99.90
61912;DHT22;49973;52.084;5.412;2022-12-10T10:22:30;0.60;99.90
61912;DHT22;49973;52.084;5.412;2022-12-10T10:25:01;0.70;99.90
61912;DHT22;49973;52.084;5.412;2022-12-10T10:27:30;0.70;99.90
61912;DHT22;49973;52.084;5.412;2022-12-10T10:30:03;0.70;99.90
61912;DHT22;49973;52.084;5.412;2022-12-10T10:32:45;0.70;99.90
61912;DHT22;49973;52.084;5.412;2022-12-10T10:35:26;0.80;99.90
61912;DHT22;49973;52.084;5.412;2022-12-10T10:38:00;0.80;99.90
61912;DHT22;49973;52.084;5.412;2022-12-10T10:40:33;0.80;99.90
61912;DHT22;49973;52.084;5.412;2022-12-10T10:43:14;0.80;99.90
61912;DHT22;49973;52.084;5.412;2022-12-10T10:45:48;0.70;99.90
61912;DHT22;49973;52.084;5.412;2022-12-10T10:48:19;0.70;99.90
61912;DHT22;49973;52.084;5.412;2022-12-10T10:50:50;0.60;99.90
61912;DHT22;49973;52.084;5.412;2022-12-10T10:53:31;0.60;99.90
61912;DHT22;49973;52.084;5.412;2022-12-10T10:56:06;0.70;99.90
61912;DHT22;49973;52.084;5.412;2022-12-10T10:58:35;0.70;99.90
61912;DHT22;49973;52.084;5.412;2022-12-10T11:01:06;0.70;99.90
61912;DHT22;49973;52.084;5.412;2022-12-10T11:03:36;0.80;99.90
61912;DHT22;49973;52.084;5.412;2022-12-10T11:06:06;0.80;99.90
61912;DHT22;49973;52.084;5.412;2022-12-10T11:08:37;0.80;99.90
61912;DHT22;49973;52.084;5.412;2022-12-10T11:11:18;0.80;99.90
61912;DHT22;49973;52.084;5.412;2022-12-10T11:13:47;0.80;99.90
61912;DHT22;49973;52.084;5.412;2022-12-10T11:16:19;0.80;99.90
61912;DHT22;49973;52.084;5.412;2022-12-10T11:18:54;0.80;99.90
61912;DHT22;49973;52.084;5.412;2022-12-10T11:21:23;0.90;99.90
61912;DHT22;49973;52.084;5.412;2022-12-10T11:23:53;1.00;99.90
61912;DHT22;49973;52.084;5.412;2022-12-10T11:26:34;0.90;99.90
61912;DHT22;49973;52.084;5.412;2022-12-10T11:29:29;0.90;99.90
61912;DHT22;49973;52.084;5.412;2022-12-10T11:32:15;1.00;99.90
61912;DHT22;49973;52.084;5.412;2022-12-10T11:34:59;1.00;99.90
61912;DHT22;49973;52.084;5.412;2022-12-10T11:37:32;1.00;99.90
61912;DHT22;49973;52.084;5.412;2022-12-10T11:40:13;1.00;99.90
61912;DHT22;49973;52.084;5.412;2022-12-10T11:42:50;1.00;99.90
61912;DHT22;49973;52.084;5.412;2022-12-10T11:45:26;0.90;99.90
61912;DHT22;49973;52.084;5.412;2022-12-10T11:48:09;1.00;99.90
61912;DHT22;49973;52.084;5.412;2022-12-10T11:50:44;1.00;99.90
61912;DHT22;49973;52.084;5.412;2022-12-10T11:53:40;1.00;99.90
61912;DHT22;49973;52.084;5.412;2022-12-10T11:56:15;1.00;99.90
61912;DHT22;49973;52.084;5.412;2022-12-10T11:59:02;1.00;99.90
61912;DHT22;49973;52.084;5.412;2022-12-10T12:01:46;0.90;99.90
61912;DHT22;49973;52.084;5.412;2022-12-10T12:04:25;1.00;99.90
61912;DHT22;49973;52.084;5.412;2022-12-10T12:07:22;1.00;99.90
61912;DHT22;49973;52.084;5.412;2022-12-10T12:10:11;0.90;99.90
61912;DHT22;49973;52.084;5.412;2022-12-10T12:12:51;1.00;99.90
61912;DHT22;49973;52.084;5.412;2022-12-10T12:15:27;0.90;99.90
61912;DHT22;49973;52.084;5.412;2022-12-10T12:18:00;1.00;99.90
61912;DHT22;49973;52.084;5.412;2022-12-10T12:20:32;1.00;99.90
61912;DHT22;49973;52.084;5.412;2022-12-10T12:23:08;1.00;99.90
61912;DHT22;49973;52.084;5.412;2022-12-10T12:25:42;1.00;99.90
61912;DHT22;49973;52.084;5.412;2022-12-10T12:28:20;1.00;99.90
61912;DHT22;49973;52.084;5.412;2022-12-10T12:30:57;1.00;99.90
61912;DHT22;49973;52.084;5.412;2022-12-10T12:33:30;1.00;99.90
61912;DHT22;49973;52.084;5.412;2022-12-10T12:36:03;1.00;99.90
61912;DHT22;49973;52.084;5.412;2022-12-10T12:38:39;1.10;99.90
61912;DHT22;49973;52.084;5.412;2022-12-10T12:41:14;1.10;99.90
61912;DHT22;49973;52.084;5.412;2022-12-10T12:43:49;1.10;99.90
61912;DHT22;49973;52.084;5.412;2022-12-10T12:46:29;1.20;99.90
61912;DHT22;49973;52.084;5.412;2022-12-10T12:49:09;1.20;99.90
61912;DHT22;49973;52.084;5.412;2022-12-10T12:51:42;1.20;99.90
61912;DHT22;49973;52.084;5.412;2022-12-10T12:54:12;1.20;99.90
61912;DHT22;49973;52.084;5.412;2022-12-10T12:56:57;1.20;99.90
61912;DHT22;49973;52.084;5.412;2022-12-10T12:59:36;1.10;99.90
61912;DHT22;49973;52.084;5.412;2022-12-10T13:02:17;1.10;99.90
61912;DHT22;49973;52.084;5.412;2022-12-10T13:04:50;1.00;99.90
61912;DHT22;49973;52.084;5.412;2022-12-10T13:07:33;1.00;99.90
61912;DHT22;49973;52.084;5.412;2022-12-10T13:10:26;0.90;99.90
61912;DHT22;49973;52.084;5.412;2022-12-10T13:13:21;0.90;99.90
61912;DHT22;49973;52.084;5.412;2022-12-10T13:15:51;0.90;99.90
61912;DHT22;49973;52.084;5.412;2022-12-10T13:18:36;0.80;99.90
61912;DHT22;49973;52.084;5.412;2022-12-10T13:21:30;0.80;99.90
61912;DHT22;49973;52.084;5.412;2022-12-10T13:24:10;0.80;99.90
61912;DHT22;49973;52.084;5.412;2022-12-10T13:27:01;0.80;99.90
61912;DHT22;49973;52.084;5.412;2022-12-10T13:29:43;0.90;99.90
61912;DHT22;49973;52.084;5.412;2022-12-10T13:32:17;0.90;99.90
61912;DHT22;49973;52.084;5.412;2022-12-10T13:35:18;0.90;99.90
61912;DHT22;49973;52.084;5.412;2022-12-10T13:37:55;1.00;99.90
61912;DHT22;49973;52.084;5.412;2022-12-10T13:40:26;1.00;99.90
61912;DHT22;49973;52.084;5.412;2022-12-10T13:42:57;1.00;99.90
61912;DHT22;49973;52.084;5.412;2022-12-10T13:46:26;1.10;99.90
61912;DHT22;49973;52.084;5.412;2022-12-10T13:48:58;1.10;99.90
61912;DHT22;49973;52.084;5.412;2022-12-10T13:51:42;1.10;99.90
61912;DHT22;49973;52.084;5.412;2022-12-10T13:57:17;1.00;99.90
61912;DHT22;49973;52.084;5.412;2022-12-10T13:59:54;1.00;99.90
61912;DHT22;49973;52.084;5.412;2022-12-10T14:02:53;1.00;99.90
61912;DHT22;49973;52.084;5.412;2022-12-10T14:08:25;0.90;99.90
61912;DHT22;49973;52.084;5.412;2022-12-10T14:10:56;0.90;99.90
61912;DHT22;49973;52.084;5.412;2022-12-10T14:13:32;0.90;99.90
61912;DHT22;49973;52.084;5.412;2022-12-10T14:16:02;0.90;99.90
61912;DHT22;49973;52.084;5.412;2022-12-10T14:18:32;0.90;99.90
61912;DHT22;49973;52.084;5.412;2022-12-10T14:21:05;0.90;99.90
61912;DHT22;49973;52.084;5.412;2022-12-10T14:23:35;0.80;99.90
61912;DHT22;49973;52.084;5.412;2022-12-10T14:26:15;0.90;99.90
61912;DHT22;49973;52.084;5.412;2022-12-10T14:28:45;0.80;99.90
61912;DHT22;49973;52.084;5.412;2022-12-10T14:31:17;0.90;99.90
61912;DHT22;49973;52.084;5.412;2022-12-10T14:33:48;0.90;99.90
61912;DHT22;49973;52.084;5.412;2022-12-10T14:36:22;0.80;99.90
61912;DHT22;49973;52.084;5.412;2022-12-10T14:38:54;0.80;99.90
61912;DHT22;49973;52.084;5.412;2022-12-10T14:41:24;0.80;99.90
61912;DHT22;49973;52.084;5.412;2022-12-10T14:43:54;0.90;99.90
61912;DHT22;49973;52.084;5.412;2022-12-10T14:46:24;0.90;99.90
61912;DHT22;49973;52.084;5.412;2022-12-10T14:48:53;0.90;99.90
61912;DHT22;49973;52.084;5.412;2022-12-10T14:51:24;0.90;99.90
61912;DHT22;49973;52.084;5.412;2022-12-10T14:53:54;0.80;99.90
61912;DHT22;49973;52.084;5.412;2022-12-10T14:56:26;0.80;99.90
61912;DHT22;49973;52.084;5.412;2022-12-10T14:59:02;0.90;99.90
61912;DHT22;49973;52.084;5.412;2022-12-10T15:01:36;0.90;99.90
61912;DHT22;49973;52.084;5.412;2022-12-10T15:04:13;0.90;99.90
61912;DHT22;49973;52.084;5.412;2022-12-10T15:06:49;0.90;99.90
61912;DHT22;49973;52.084;5.412;2022-12-10T15:09:22;0.90;99.90
61912;DHT22;49973;52.084;5.412;2022-12-10T15:11:53;0.90;99.90
61912;DHT22;49973;52.084;5.412;2022-12-10T15:14:23;0.90;99.90
61912;DHT22;49973;52.084;5.412;2022-12-10T15:16:52;0.90;99.90
61912;DHT22;49973;52.084;5.412;2022-12-10T15:19:32;0.90;99.90
61912;DHT22;49973;52.084;5.412;2022-12-10T15:22:15;0.80;99.90
61912;DHT22;49973;52.084;5.412;2022-12-10T15:24:47;0.90;99.90
61912;DHT22;49973;52.084;5.412;2022-12-10T15:27:17;0.90;99.90
61912;DHT22;49973;52.084;5.412;2022-12-10T15:29:47;0.90;99.90
61912;DHT22;49973;52.084;5.412;2022-12-10T15:32:19;0.80;99.90
61912;DHT22;49973;52.084;5.412;2022-12-10T15:34:54;0.90;99.90
61912;DHT22;49973;52.084;5.412;2022-12-10T15:37:24;0.90;99.90
61912;DHT22;49973;52.084;5.412;2022-12-10T15:39:57;0.90;99.90
61912;DHT22;49973;52.084;5.412;2022-12-10T15:42:37;0.90;99.90
61912;DHT22;49973;52.084;5.412;2022-12-10T15:45:23;0.90;99.90
61912;DHT22;49973;52.084;5.412;2022-12-10T15:47:54;0.90;99.90
61912;DHT22;49973;52.084;5.412;2022-12-10T15:50:26;1.00;99.90
61912;DHT22;49973;52.084;5.412;2022-12-10T15:52:54;1.00;99.90
61912;DHT22;49973;52.084;5.412;2022-12-10T15:55:24;1.00;99.90
61912;DHT22;49973;52.084;5.412;2022-12-10T15:57:53;1.00;99.90
61912;DHT22;49973;52.084;5.412;2022-12-10T16:00:23;1.00;99.90
61912;DHT22;49973;52.084;5.412;2022-12-10T16:02:53;1.00;99.90
61912;DHT22;49973;52.084;5.412;2022-12-10T16:05:25;0.90;99.90
61912;DHT22;49973;52.084;5.412;2022-12-10T16:07:56;0.90;99.90
61912;DHT22;49973;52.084;5.412;2022-12-10T16:10:27;0.90;99.90
61912;DHT22;49973;52.084;5.412;2022-12-10T16:12:59;0.90;99.90
61912;DHT22;49973;52.084;5.412;2022-12-10T16:15:30;0.90;99.90
61912;DHT22;49973;52.084;5.412;2022-12-10T16:18:02;0.90;99.90
61912;DHT22;49973;52.084;5.412;2022-12-10T16:20:32;0.90;99.90
61912;DHT22;49973;52.084;5.412;2022-12-10T16:23:00;0.90;99.90
61912;DHT22;49973;52.084;5.412;2022-12-10T16:25:31;1.00;99.90
61912;DHT22;49973;52.084;5.412;2022-12-10T16:28:01;1.00;99.90